Time;durP1;ratioP1;P1;durP2;ratioP2;P2;SDS_P1;SDS_P2;PMS_P1;PMS_P2;Temp;Humidity;BMP_temperature;BMP_pressure;BME280_temperature;BME280_humidity;BME280_pressure;Samples;Min_cycle;Max_cycle;Signal;HPM_P1;HPM_P2
2021/12/27 00:02:10;;;;;;;;;;;19.90;37.90;;;;;;5072605;28;19924;-50
2021/12/27 00:04:37;;;;;;;;;;;19.90;37.90;;;;;;5072768;28;19940;-52
2021/12/27 00:07:04;;;;;;;;;;;19.90;37.90;;;;;;5072972;28;19978;-49
2021/12/27 00:09:31;;;;;;;;;;;19.90;37.90;;;;;;5074281;28;19974;-55
2021/12/27 00:11:59;;;;;;;;;;;19.90;37.90;;;;;;5076151;28;19939;-55
2021/12/27 00:14:26;;;;;;;;;;;19.90;37.90;;;;;;5077574;28;20319;-52
2021/12/27 00:16:53;;;;;;;;;;;19.90;37.90;;;;;;5076729;28;19931;-51
2021/12/27 00:19:20;;;;;;;;;;;19.90;37.90;;;;;;5075612;28;19928;-52
2021/12/27 00:21:47;;;;;;;;;;;19.90;37.90;;;;;;5076404;28;19977;-52
2021/12/27 00:24:14;;;;;;;;;;;19.90;37.90;;;;;;5075647;28;19925;-53
2021/12/27 00:26:41;;;;;;;;;;;19.90;37.90;;;;;;5075697;28;19924;-51
2021/12/27 00:29:09;;;;;;;;;;;19.90;37.90;;;;;;5076674;28;19925;-54
2021/12/27 00:31:36;;;;;;;;;;;19.90;37.90;;;;;;5076997;28;19971;-54
2021/12/27 00:34:03;;;;;;;;;;;19.90;37.90;;;;;;5076542;28;19928;-55
2021/12/27 00:36:29;;;;;;;;;;;19.90;37.90;;;;;;5075976;28;19929;-52
2021/12/27 00:38:56;;;;;;;;;;;19.90;37.90;;;;;;5091642;28;19982;-56
2021/12/27 00:41:23;;;;;;;;;;;19.90;37.90;;;;;;5075142;28;20290;-53
2021/12/27 00:43:50;;;;;;;;;;;19.90;37.90;;;;;;5076858;28;20349;-55
2021/12/27 00:46:18;;;;;;;;;;;19.90;37.90;;;;;;5074188;28;19925;-52
2021/12/27 00:48:45;;;;;;;;;;;19.90;37.90;;;;;;5076238;28;19978;-51
2021/12/27 00:51:12;;;;;;;;;;;19.90;37.90;;;;;;5075945;28;19984;-51
2021/12/27 00:53:38;;;;;;;;;;;19.90;37.90;;;;;;5075735;28;19931;-52
2021/12/27 00:56:05;;;;;;;;;;;19.90;37.90;;;;;;5074716;28;19973;-51
2021/12/27 00:58:32;;;;;;;;;;;19.90;37.90;;;;;;5075038;28;19932;-55
2021/12/27 01:00:58;;;;;;;;;;;19.90;37.90;;;;;;5074918;28;20391;-51
2021/12/27 01:03:27;;;;;;;;;;;19.90;37.90;;;;;;5077012;28;19929;-51
2021/12/27 01:05:53;;;;;;;;;;;19.90;37.90;;;;;;5076283;28;19978;-54
2021/12/27 01:08:20;;;;;;;;;;;19.90;37.90;;;;;;5086052;28;19962;-51
2021/12/27 01:13:42;;;;;;;;;;;19.90;37.90;;;;;;5074917;28;20308;-52
2021/12/27 01:16:13;;;;;;;;;;;19.90;37.90;;;;;;5074824;28;19978;-49
2021/12/27 01:18:42;;;;;;;;;;;19.90;38.50;;;;;;5074428;28;19930;-53
2021/12/27 01:21:09;;;;;;;;;;;19.80;37.80;;;;;;5074063;28;19928;-51
2021/12/27 01:23:36;;;;;;;;;;;19.80;37.80;;;;;;5073672;28;19928;-56
2021/12/27 01:26:03;;;;;;;;;;;19.80;37.80;;;;;;5073561;28;19947;-50
2021/12/27 01:28:29;;;;;;;;;;;19.80;37.80;;;;;;5073821;28;20532;-54
2021/12/27 01:30:57;;;;;;;;;;;19.80;37.80;;;;;;5073414;28;19924;-54
2021/12/27 01:33:25;;;;;;;;;;;19.80;37.80;;;;;;5074146;28;19925;-54
2021/12/27 01:35:55;;;;;;;;;;;19.80;37.80;;;;;;5073762;28;19925;-55
2021/12/27 01:38:22;;;;;;;;;;;19.80;37.80;;;;;;5083525;28;19924;-53
2021/12/27 01:40:49;;;;;;;;;;;19.80;37.80;;;;;;5085260;28;19931;-53
2021/12/27 01:43:16;;;;;;;;;;;19.80;37.80;;;;;;5072938;28;19970;-54
2021/12/27 01:45:43;;;;;;;;;;;19.80;37.90;;;;;;5074077;28;19948;-54
2021/12/27 01:48:10;;;;;;;;;;;19.80;37.80;;;;;;5072789;28;19931;-56
2021/12/27 01:50:37;;;;;;;;;;;19.80;37.80;;;;;;5072385;28;19928;-54
2021/12/27 01:53:05;;;;;;;;;;;19.80;37.80;;;;;;5057146;28;19967;-55
2021/12/27 01:55:32;;;;;;;;;;;19.80;37.80;;;;;;5072694;28;20011;-54
2021/12/27 01:57:59;;;;;;;;;;;19.80;37.80;;;;;;5073328;28;19998;-55
2021/12/27 02:00:26;;;;;;;;;;;19.80;37.80;;;;;;5074424;28;19929;-51
2021/12/27 02:02:53;;;;;;;;;;;19.80;37.80;;;;;;5073158;28;19925;-52
2021/12/27 02:05:20;;;;;;;;;;;19.80;37.80;;;;;;5073875;28;19924;-54
2021/12/27 02:07:46;;;;;;;;;;;19.80;37.80;;;;;;5074985;28;19970;-52
2021/12/27 02:10:14;;;;;;;;;;;19.80;37.80;;;;;;5073757;28;20014;-57
2021/12/27 02:12:41;;;;;;;;;;;19.80;37.80;;;;;;5073345;28;19943;-55
2021/12/27 02:15:09;;;;;;;;;;;19.80;37.80;;;;;;5073621;28;19960;-53
2021/12/27 02:17:36;;;;;;;;;;;19.80;37.80;;;;;;5074727;28;20274;-51
2021/12/27 02:20:05;;;;;;;;;;;19.80;37.80;;;;;;5073816;28;19929;-53
2021/12/27 02:22:36;;;;;;;;;;;19.80;37.80;;;;;;5065066;28;19924;-53
2021/12/27 02:25:04;;;;;;;;;;;19.80;37.80;;;;;;5072686;28;19925;-50
2021/12/27 02:27:31;;;;;;;;;;;19.80;37.90;;;;;;5072072;28;19928;-53
2021/12/27 02:29:58;;;;;;;;;;;19.80;37.80;;;;;;5072784;28;19935;-54
2021/12/27 02:32:25;;;;;;;;;;;19.80;37.80;;;;;;5071821;28;19943;-53
2021/12/27 02:34:51;;;;;;;;;;;19.80;37.80;;;;;;5073234;28;20027;-54
2021/12/27 02:37:20;;;;;;;;;;;19.80;37.80;;;;;;5073881;28;19964;-54
2021/12/27 02:39:47;;;;;;;;;;;19.80;37.90;;;;;;5056302;28;19939;-54
2021/12/27 02:42:16;;;;;;;;;;;19.80;37.90;;;;;;5072727;28;19993;-54
2021/12/27 02:44:43;;;;;;;;;;;19.80;37.90;;;;;;5072793;28;19964;-50
2021/12/27 02:47:10;;;;;;;;;;;19.80;37.90;;;;;;5072778;28;20027;-53
2021/12/27 02:49:36;;;;;;;;;;;19.80;37.90;;;;;;5073181;28;19929;-55
2021/12/27 02:52:04;;;;;;;;;;;19.80;37.90;;;;;;5073719;28;20049;-53
2021/12/27 02:54:32;;;;;;;;;;;19.80;37.90;;;;;;5072941;28;20390;-52
2021/12/27 02:56:59;;;;;;;;;;;19.80;37.90;;;;;;5073779;28;19924;-51
2021/12/27 02:59:25;;;;;;;;;;;19.80;37.90;;;;;;5072523;28;20367;-53
2021/12/27 03:01:52;;;;;;;;;;;19.80;37.90;;;;;;5072008;28;19928;-51
2021/12/27 03:04:19;;;;;;;;;;;19.80;37.90;;;;;;5072690;28;19924;-54
2021/12/27 03:06:46;;;;;;;;;;;19.80;37.90;;;;;;5074029;28;19928;-51
2021/12/27 03:09:13;;;;;;;;;;;19.80;37.90;;;;;;5073802;28;19924;-55
2021/12/27 03:11:41;;;;;;;;;;;19.80;37.90;;;;;;5072148;28;20027;-50
2021/12/27 03:14:08;;;;;;;;;;;19.80;37.90;;;;;;5072440;28;19946;-53
2021/12/27 03:16:35;;;;;;;;;;;19.80;37.90;;;;;;5072561;28;19931;-52
2021/12/27 03:19:01;;;;;;;;;;;19.80;37.90;;;;;;5072535;28;20015;-55
2021/12/27 03:21:29;;;;;;;;;;;19.80;37.90;;;;;;5073946;28;20439;-53
2021/12/27 03:23:56;;;;;;;;;;;19.80;37.90;;;;;;5072210;28;19933;-50
2021/12/27 03:26:23;;;;;;;;;;;19.80;37.90;;;;;;5073676;28;19929;-49
2021/12/27 03:28:51;;;;;;;;;;;19.80;37.90;;;;;;5072191;28;19959;-54
2021/12/27 03:31:19;;;;;;;;;;;19.80;37.90;;;;;;5072295;28;19950;-51
2021/12/27 03:33:46;;;;;;;;;;;19.80;37.90;;;;;;5071859;28;19925;-52
2021/12/27 03:36:13;;;;;;;;;;;19.80;38.00;;;;;;5073063;28;19992;-54
2021/12/27 03:38:40;;;;;;;;;;;19.70;37.80;;;;;;5074978;28;19955;-53
2021/12/27 03:41:08;;;;;;;;;;;19.70;37.80;;;;;;5071841;28;19929;-48
2021/12/27 03:43:35;;;;;;;;;;;19.80;37.90;;;;;;5074936;28;20027;-53
2021/12/27 03:46:03;;;;;;;;;;;19.80;37.90;;;;;;5076757;28;19925;-49
2021/12/27 03:48:30;;;;;;;;;;;19.80;37.90;;;;;;5076619;28;19973;-52
2021/12/27 03:50:57;;;;;;;;;;;19.80;37.90;;;;;;5076915;28;19950;-51
2021/12/27 03:53:23;;;;;;;;;;;19.70;37.90;;;;;;5075115;28;19931;-49
2021/12/27 03:55:50;;;;;;;;;;;19.70;37.80;;;;;;5074985;28;20096;-53
2021/12/27 03:58:26;;;;;;;;;;;19.70;37.80;;;;;;5076009;28;19929;-54
2021/12/27 04:01:02;;;;;;;;;;;19.70;37.80;;;;;;5075440;28;20426;-52
2021/12/27 04:03:31;;;;;;;;;;;19.70;37.80;;;;;;5076269;28;19924;-50
2021/12/27 04:05:58;;;;;;;;;;;19.70;37.80;;;;;;5076004;28;20023;-51
2021/12/27 04:08:25;;;;;;;;;;;19.70;37.80;;;;;;5075849;28;19981;-51
2021/12/27 04:10:52;;;;;;;;;;;19.70;37.80;;;;;;5075922;28;19954;-52
2021/12/27 04:13:21;;;;;;;;;;;19.70;37.90;;;;;;5075968;28;19963;-51
2021/12/27 04:15:48;;;;;;;;;;;19.80;38.00;;;;;;5075390;28;20300;-49
2021/12/27 04:18:15;;;;;;;;;;;19.70;37.90;;;;;;5075083;28;19925;-54
2021/12/27 04:20:43;;;;;;;;;;;19.70;37.80;;;;;;5074275;28;20014;-53
2021/12/27 04:23:10;;;;;;;;;;;19.70;37.90;;;;;;5075114;28;20012;-50
2021/12/27 04:25:37;;;;;;;;;;;19.70;37.80;;;;;;5075247;28;19975;-53
2021/12/27 04:28:04;;;;;;;;;;;19.70;37.90;;;;;;5076167;28;19925;-52
2021/12/27 04:30:30;;;;;;;;;;;19.70;37.90;;;;;;5075290;28;20524;-51
2021/12/27 04:32:57;;;;;;;;;;;19.70;37.80;;;;;;5075207;28;19928;-52
2021/12/27 04:35:24;;;;;;;;;;;19.70;37.90;;;;;;5074580;28;19991;-55
2021/12/27 04:37:52;;;;;;;;;;;19.70;37.90;;;;;;5075190;28;19978;-55
2021/12/27 04:40:19;;;;;;;;;;;19.70;37.90;;;;;;5074792;28;19925;-50
2021/12/27 04:42:47;;;;;;;;;;;19.70;37.90;;;;;;5075578;28;20381;-50
2021/12/27 04:45:14;;;;;;;;;;;19.70;37.90;;;;;;5074635;28;19924;-53
2021/12/27 04:47:41;;;;;;;;;;;19.70;37.90;;;;;;5074805;28;19979;-52
2021/12/27 04:50:08;;;;;;;;;;;19.70;37.90;;;;;;5074517;28;20332;-51
2021/12/27 04:52:35;;;;;;;;;;;19.70;37.90;;;;;;5074597;28;19932;-55
2021/12/27 04:55:03;;;;;;;;;;;19.70;37.90;;;;;;5074081;28;19925;-53
2021/12/27 04:57:30;;;;;;;;;;;19.70;37.90;;;;;;5076037;28;19925;-52
2021/12/27 04:59:57;;;;;;;;;;;19.70;37.90;;;;;;5075618;28;19972;-55
2021/12/27 05:02:24;;;;;;;;;;;19.70;37.90;;;;;;5074186;28;19928;-49
2021/12/27 05:04:50;;;;;;;;;;;19.70;37.90;;;;;;5073833;28;19924;-50
2021/12/27 05:07:17;;;;;;;;;;;19.70;37.90;;;;;;5075872;28;19970;-50
2021/12/27 05:09:43;;;;;;;;;;;19.70;37.90;;;;;;5075738;28;20019;-52
2021/12/27 05:12:12;;;;;;;;;;;19.70;37.90;;;;;;5074637;28;20019;-49
2021/12/27 05:14:39;;;;;;;;;;;19.70;37.90;;;;;;5076501;28;19924;-51
2021/12/27 05:17:06;;;;;;;;;;;19.70;37.90;;;;;;5075378;28;19974;-49
2021/12/27 05:19:32;;;;;;;;;;;19.70;37.90;;;;;;5077044;28;20354;-48
2021/12/27 05:21:59;;;;;;;;;;;19.70;37.90;;;;;;5076296;28;19925;-51
2021/12/27 05:24:27;;;;;;;;;;;19.70;37.90;;;;;;5075314;28;19924;-51
2021/12/27 05:26:54;;;;;;;;;;;19.70;37.90;;;;;;5075982;28;19960;-51
2021/12/27 05:29:22;;;;;;;;;;;19.70;37.90;;;;;;5074962;28;19925;-49
2021/12/27 05:31:49;;;;;;;;;;;19.70;37.90;;;;;;5074771;28;19928;-48
2021/12/27 05:34:16;;;;;;;;;;;19.70;37.90;;;;;;5074248;28;19983;-51
2021/12/27 05:36:43;;;;;;;;;;;19.70;37.90;;;;;;5073595;28;19932;-51
2021/12/27 05:39:10;;;;;;;;;;;19.70;37.90;;;;;;5091477;28;19930;-49
2021/12/27 05:41:37;;;;;;;;;;;19.70;37.90;;;;;;5082206;28;19931;-48
2021/12/27 05:44:04;;;;;;;;;;;19.70;37.90;;;;;;5075151;28;19925;-51
2021/12/27 05:46:33;;;;;;;;;;;19.70;37.90;;;;;;5074606;28;20261;-50
2021/12/27 05:49:00;;;;;;;;;;;19.70;37.90;;;;;;5075311;28;19994;-48
2021/12/27 05:51:26;;;;;;;;;;;19.70;37.90;;;;;;5075652;28;19928;-51
2021/12/27 05:53:53;;;;;;;;;;;19.70;37.90;;;;;;5076165;28;19996;-51
2021/12/27 05:56:20;;;;;;;;;;;19.70;37.90;;;;;;5074142;28;20015;-51
2021/12/27 05:58:47;;;;;;;;;;;19.70;38.00;;;;;;5074167;28;19951;-51
2021/12/27 06:01:14;;;;;;;;;;;19.70;37.90;;;;;;5071841;28;19924;-54
2021/12/27 06:03:42;;;;;;;;;;;19.70;37.90;;;;;;5073235;28;20056;-52
2021/12/27 06:06:10;;;;;;;;;;;19.70;38.00;;;;;;5073147;28;19970;-50
2021/12/27 06:08:36;;;;;;;;;;;19.70;38.00;;;;;;5084965;28;20023;-48
2021/12/27 06:11:03;;;;;;;;;;;19.70;38.00;;;;;;5093126;28;19928;-48
2021/12/27 06:13:30;;;;;;;;;;;19.70;38.00;;;;;;5074175;28;19928;-53
2021/12/27 06:15:56;;;;;;;;;;;19.70;38.00;;;;;;5075475;28;19924;-52
2021/12/27 06:18:24;;;;;;;;;;;19.70;38.00;;;;;;5068853;28;19929;-52
2021/12/27 06:20:52;;;;;;;;;;;19.70;38.00;;;;;;5073723;28;20491;-48
2021/12/27 06:23:19;;;;;;;;;;;19.70;38.00;;;;;;5072985;28;19933;-50
2021/12/27 06:25:46;;;;;;;;;;;19.70;38.00;;;;;;5074088;28;19928;-51
2021/12/27 06:28:12;;;;;;;;;;;19.70;38.00;;;;;;5073364;28;19924;-54
2021/12/27 06:30:39;;;;;;;;;;;19.70;38.00;;;;;;5073816;28;19929;-51
2021/12/27 06:33:06;;;;;;;;;;;19.70;38.00;;;;;;5072843;28;20417;-49
2021/12/27 06:35:33;;;;;;;;;;;19.70;38.00;;;;;;5073353;28;19959;-51
2021/12/27 06:38:01;;;;;;;;;;;19.70;38.00;;;;;;5073368;28;20035;-54
2021/12/27 06:40:28;;;;;;;;;;;19.70;38.00;;;;;;5072606;28;19935;-52
2021/12/27 06:42:55;;;;;;;;;;;19.70;38.00;;;;;;5072816;28;20403;-48
2021/12/27 06:45:22;;;;;;;;;;;19.70;38.00;;;;;;5073023;28;19928;-53
2021/12/27 06:47:49;;;;;;;;;;;19.70;38.00;;;;;;5073489;28;19974;-51
2021/12/27 06:50:16;;;;;;;;;;;19.70;38.00;;;;;;5074726;28;19932;-48
2021/12/27 06:52:43;;;;;;;;;;;19.70;38.00;;;;;;5073047;28;19946;-49
2021/12/27 06:55:11;;;;;;;;;;;19.70;38.00;;;;;;5072658;28;19925;-48
2021/12/27 06:57:38;;;;;;;;;;;19.70;38.00;;;;;;5072148;28;20314;-54
2021/12/27 07:00:06;;;;;;;;;;;19.70;38.60;;;;;;5072473;28;19954;-51
2021/12/27 07:02:32;;;;;;;;;;;19.70;38.00;;;;;;5072060;28;20036;-54
2021/12/27 07:04:59;;;;;;;;;;;19.70;38.00;;;;;;5072799;28;19932;-50
2021/12/27 07:07:26;;;;;;;;;;;19.70;38.00;;;;;;5070664;28;20000;-50
2021/12/27 07:09:53;;;;;;;;;;;19.70;38.00;;;;;;5070671;28;19929;-53
2021/12/27 07:12:21;;;;;;;;;;;19.70;38.00;;;;;;5053754;28;19935;-50
2021/12/27 07:14:48;;;;;;;;;;;19.70;38.00;;;;;;5073805;28;19928;-53
2021/12/27 07:17:15;;;;;;;;;;;19.70;38.00;;;;;;5072190;28;20000;-55
2021/12/27 07:19:42;;;;;;;;;;;19.70;38.00;;;;;;5074041;28;19928;-53
2021/12/27 07:22:08;;;;;;;;;;;19.70;38.00;;;;;;5072375;28;19928;-50
2021/12/27 07:24:35;;;;;;;;;;;19.70;38.00;;;;;;5072726;28;19928;-55
2021/12/27 07:27:02;;;;;;;;;;;19.70;38.00;;;;;;5073051;28;19928;-50
2021/12/27 07:29:30;;;;;;;;;;;19.70;38.00;;;;;;5073818;28;19977;-49
2021/12/27 07:31:57;;;;;;;;;;;19.70;38.00;;;;;;5073161;28;19975;-52
2021/12/27 07:34:24;;;;;;;;;;;19.70;38.00;;;;;;5071861;28;19936;-51
2021/12/27 07:36:51;;;;;;;;;;;19.70;38.00;;;;;;5072706;28;19963;-53
2021/12/27 07:39:18;;;;;;;;;;;19.70;38.00;;;;;;5071719;28;19931;-49
2021/12/27 07:41:45;;;;;;;;;;;19.70;38.00;;;;;;5073391;28;20051;-51
2021/12/27 07:44:12;;;;;;;;;;;19.70;38.00;;;;;;5070466;28;20023;-56
2021/12/27 07:46:42;;;;;;;;;;;19.70;38.00;;;;;;5086981;28;19968;-51
2021/12/27 07:49:08;;;;;;;;;;;19.70;38.10;;;;;;5071589;28;19924;-51
2021/12/27 07:51:35;;;;;;;;;;;19.70;38.00;;;;;;5070818;28;19934;-55
2021/12/27 07:54:02;;;;;;;;;;;19.70;38.00;;;;;;5072449;28;19924;-53
2021/12/27 07:56:29;;;;;;;;;;;19.70;38.10;;;;;;5071675;28;20292;-52
2021/12/27 07:58:56;;;;;;;;;;;19.70;38.10;;;;;;5071273;28;20457;-49
2021/12/27 08:01:23;;;;;;;;;;;19.70;38.10;;;;;;5070852;28;19924;-53
2021/12/27 08:03:52;;;;;;;;;;;19.70;38.00;;;;;;5070578;28;19972;-51
2021/12/27 08:06:19;;;;;;;;;;;19.70;38.10;;;;;;5070346;28;19924;-51
2021/12/27 08:08:46;;;;;;;;;;;19.70;38.10;;;;;;5070226;28;19925;-54
2021/12/27 08:11:13;;;;;;;;;;;19.70;38.10;;;;;;5070014;28;19924;-52
2021/12/27 08:13:42;;;;;;;;;;;19.70;38.10;;;;;;5071646;28;19983;-49
2021/12/27 08:16:09;;;;;;;;;;;19.70;38.10;;;;;;5071250;28;20293;-55
2021/12/27 08:18:36;;;;;;;;;;;19.70;38.10;;;;;;5070880;28;19925;-50
2021/12/27 08:21:04;;;;;;;;;;;19.70;38.10;;;;;;5071209;28;19955;-51
2021/12/27 08:23:31;;;;;;;;;;;19.70;38.10;;;;;;5070060;28;19978;-49
2021/12/27 08:25:57;;;;;;;;;;;19.70;38.00;;;;;;5070369;28;20015;-53
2021/12/27 08:28:24;;;;;;;;;;;19.70;38.10;;;;;;5072215;28;19928;-54
2021/12/27 08:30:51;;;;;;;;;;;19.70;38.10;;;;;;5073829;28;19928;-49
2021/12/27 08:33:18;;;;;;;;;;;19.70;38.10;;;;;;5073780;28;19978;-54
2021/12/27 08:35:44;;;;;;;;;;;19.70;38.10;;;;;;5074494;28;19924;-51
2021/12/27 08:38:13;;;;;;;;;;;19.70;38.10;;;;;;5078261;28;19924;-52
2021/12/27 08:40:40;;;;;;;;;;;19.70;38.10;;;;;;5074005;28;20014;-55
2021/12/27 08:43:06;;;;;;;;;;;19.70;38.10;;;;;;5073801;28;19960;-52
2021/12/27 08:45:33;;;;;;;;;;;19.70;38.10;;;;;;5073315;28;19968;-51
2021/12/27 08:48:00;;;;;;;;;;;19.70;38.10;;;;;;5074275;28;19931;-52
2021/12/27 08:50:26;;;;;;;;;;;19.70;38.10;;;;;;5057223;28;19931;-52
2021/12/27 08:52:53;;;;;;;;;;;19.70;38.10;;;;;;5075242;28;19924;-53
2021/12/27 08:55:21;;;;;;;;;;;19.70;38.10;;;;;;5074082;28;19963;-52
2021/12/27 08:57:48;;;;;;;;;;;19.70;38.10;;;;;;5074915;28;20356;-50
2021/12/27 09:00:16;;;;;;;;;;;19.70;38.10;;;;;;5074063;28;19924;-51
2021/12/27 09:02:43;;;;;;;;;;;19.70;38.10;;;;;;5073683;28;20396;-55
2021/12/27 09:05:10;;;;;;;;;;;19.70;38.10;;;;;;5075277;28;20497;-52
2021/12/27 09:07:37;;;;;;;;;;;19.70;38.10;;;;;;5074620;28;19928;-48
2021/12/27 09:10:04;;;;;;;;;;;19.70;38.10;;;;;;5073065;28;20012;-48
2021/12/27 09:12:32;;;;;;;;;;;19.70;38.10;;;;;;5070909;28;19928;-49
2021/12/27 09:14:59;;;;;;;;;;;19.70;38.10;;;;;;5074037;28;20435;-54
2021/12/27 09:17:26;;;;;;;;;;;19.70;38.20;;;;;;5072655;28;20026;-52
2021/12/27 09:19:53;;;;;;;;;;;19.70;38.10;;;;;;5072431;28;20019;-48
2021/12/27 09:22:19;;;;;;;;;;;19.70;38.20;;;;;;5072808;28;20022;-53
2021/12/27 09:24:46;;;;;;;;;;;19.70;38.20;;;;;;5072794;28;19924;-48
2021/12/27 09:27:13;;;;;;;;;;;19.70;38.20;;;;;;5073223;28;20280;-49
2021/12/27 09:29:43;;;;;;;;;;;19.70;38.20;;;;;;5074133;28;20598;-52
2021/12/27 09:32:09;;;;;;;;;;;19.70;38.10;;;;;;5070261;28;19961;-52
2021/12/27 09:34:36;;;;;;;;;;;19.70;38.20;;;;;;5072464;28;19931;-50
2021/12/27 09:37:03;;;;;;;;;;;19.70;38.20;;;;;;5072931;28;19985;-52
2021/12/27 09:39:29;;;;;;;;;;;19.70;38.20;;;;;;5071288;28;19975;-48
2021/12/27 09:41:56;;;;;;;;;;;19.70;38.20;;;;;;5072561;28;19924;-48
2021/12/27 09:44:23;;;;;;;;;;;19.70;38.20;;;;;;5072551;28;19986;-50
2021/12/27 09:46:51;;;;;;;;;;;19.70;38.20;;;;;;5074056;28;19977;-51
2021/12/27 09:49:18;;;;;;;;;;;19.70;38.20;;;;;;5071972;28;20442;-48
2021/12/27 09:51:44;;;;;;;;;;;19.70;38.20;;;;;;5075468;28;19938;-51
2021/12/27 09:54:11;;;;;;;;;;;19.70;38.20;;;;;;5072295;28;20011;-52
2021/12/27 09:56:38;;;;;;;;;;;19.70;38.20;;;;;;5073629;28;20023;-49
2021/12/27 09:59:05;;;;;;;;;;;19.70;38.20;;;;;;5072275;28;19964;-48
2021/12/27 10:01:31;;;;;;;;;;;19.70;38.20;;;;;;5072947;28;20023;-52
2021/12/27 10:04:02;;;;;;;;;;;19.70;38.20;;;;;;5071629;28;19982;-49
2021/12/27 10:06:29;;;;;;;;;;;19.70;38.20;;;;;;5071885;28;19924;-48
2021/12/27 10:08:56;;;;;;;;;;;19.70;38.20;;;;;;5067683;28;20355;-51
2021/12/27 10:11:24;;;;;;;;;;;19.70;38.20;;;;;;5073906;28;20437;-49
2021/12/27 10:13:57;;;;;;;;;;;19.70;38.20;;;;;;5069386;28;20002;-49
2021/12/27 10:16:24;;;;;;;;;;;19.70;38.20;;;;;;5072067;28;19929;-50
2021/12/27 10:18:53;;;;;;;;;;;19.70;38.20;;;;;;5072825;28;19924;-50
2021/12/27 10:21:21;;;;;;;;;;;19.70;38.20;;;;;;5073517;28;20026;-51
2021/12/27 10:23:48;;;;;;;;;;;19.70;38.20;;;;;;5071084;28;20309;-50
2021/12/27 10:26:17;;;;;;;;;;;19.70;38.20;;;;;;5073285;28;19971;-51
2021/12/27 10:28:44;;;;;;;;;;;19.70;38.30;;;;;;5071178;28;19970;-51
2021/12/27 10:31:11;;;;;;;;;;;19.70;38.20;;;;;;5072131;28;19962;-49
2021/12/27 10:33:38;;;;;;;;;;;19.70;38.20;;;;;;5071175;28;19925;-48
2021/12/27 10:36:05;;;;;;;;;;;19.70;38.30;;;;;;5071025;28;20011;-48
2021/12/27 10:38:36;;;;;;;;;;;19.70;38.30;;;;;;5065216;28;19935;-53
2021/12/27 10:41:03;;;;;;;;;;;19.70;38.30;;;;;;5064596;28;20026;-52
2021/12/27 10:43:39;;;;;;;;;;;19.70;38.30;;;;;;5070580;28;19974;-57
2021/12/27 10:46:06;;;;;;;;;;;19.70;38.30;;;;;;5069951;28;20364;-50
2021/12/27 10:48:33;;;;;;;;;;;19.70;38.30;;;;;;5070836;28;19983;-54
2021/12/27 10:51:00;;;;;;;;;;;19.80;38.40;;;;;;5069853;28;20019;-51
2021/12/27 10:53:27;;;;;;;;;;;19.80;38.40;;;;;;5072541;28;19928;-54
2021/12/27 10:55:56;;;;;;;;;;;19.80;38.50;;;;;;5070001;28;19928;-52
2021/12/27 10:58:24;;;;;;;;;;;19.80;38.50;;;;;;5069248;28;20344;-51
2021/12/27 11:00:51;;;;;;;;;;;19.80;38.50;;;;;;5070613;28;19964;-55
2021/12/27 11:03:28;;;;;;;;;;;19.80;38.50;;;;;;5074168;28;19925;-48
2021/12/27 11:05:55;;;;;;;;;;;19.80;38.50;;;;;;5072781;28;19925;-51
2021/12/27 11:08:22;;;;;;;;;;;19.80;38.50;;;;;;5072552;28;20381;-50
2021/12/27 11:10:49;;;;;;;;;;;19.80;38.50;;;;;;5072047;28;19924;-53
2021/12/27 11:13:19;;;;;;;;;;;19.80;38.50;;;;;;5070951;28;20182;-48
2021/12/27 11:15:46;;;;;;;;;;;19.80;38.60;;;;;;5075973;28;19934;-52
2021/12/27 11:18:14;;;;;;;;;;;19.80;38.60;;;;;;5074016;28;19994;-51
2021/12/27 11:20:42;;;;;;;;;;;19.80;38.50;;;;;;5072213;28;19932;-53
2021/12/27 11:23:10;;;;;;;;;;;19.90;39.30;;;;;;5072372;28;20004;-53
2021/12/27 11:25:37;;;;;;;;;;;19.90;38.70;;;;;;5071813;28;20015;-50
2021/12/27 11:28:04;;;;;;;;;;;19.90;38.70;;;;;;5075067;28;19925;-53
2021/12/27 11:30:33;;;;;;;;;;;19.90;38.70;;;;;;5069847;28;20388;-54
2021/12/27 11:33:04;;;;;;;;;;;19.90;38.70;;;;;;5069870;28;19925;-51
2021/12/27 11:35:34;;;;;;;;;;;19.90;38.70;;;;;;5068801;28;20014;-54
2021/12/27 11:38:01;;;;;;;;;;;19.90;38.70;;;;;;5071738;28;19970;-51
2021/12/27 11:40:38;;;;;;;;;;;19.90;39.30;;;;;;5069359;28;19988;-53
2021/12/27 11:43:05;;;;;;;;;;;19.90;38.70;;;;;;5070816;28;19997;-56
2021/12/27 11:45:44;;;;;;;;;;;19.90;38.70;;;;;;5068556;28;19925;-57
2021/12/27 11:48:11;;;;;;;;;;;19.90;38.70;;;;;;5070098;28;20114;-53
2021/12/27 11:51:01;;;;;;;;;;;19.90;38.70;;;;;;5068892;28;19925;-53
2021/12/27 11:53:28;;;;;;;;;;;19.90;38.70;;;;;;5065067;28;20027;-55
2021/12/27 11:55:55;;;;;;;;;;;19.90;38.70;;;;;;5070148;28;19931;-57
2021/12/27 11:58:28;;;;;;;;;;;19.90;38.70;;;;;;5066271;28;20011;-56
2021/12/27 12:00:57;;;;;;;;;;;19.90;38.70;;;;;;5067971;28;19931;-55
2021/12/27 12:03:34;;;;;;;;;;;19.90;38.70;;;;;;5069225;28;19990;-51
2021/12/27 12:06:01;;;;;;;;;;;19.90;38.70;;;;;;5072298;28;20317;-51
2021/12/27 12:08:50;;;;;;;;;;;19.90;38.80;;;;;;5075025;28;19924;-55
2021/12/27 12:11:17;;;;;;;;;;;19.90;38.80;;;;;;5074053;28;19964;-54
2021/12/27 12:13:44;;;;;;;;;;;19.90;38.80;;;;;;5074048;28;19928;-50
2021/12/27 12:16:14;;;;;;;;;;;19.90;38.80;;;;;;5073987;28;20320;-55
2021/12/27 12:18:42;;;;;;;;;;;20.00;38.90;;;;;;5070143;28;19982;-53
2021/12/27 12:21:24;;;;;;;;;;;19.90;38.80;;;;;;5074262;28;19964;-52
2021/12/27 12:23:54;;;;;;;;;;;20.00;39.00;;;;;;5071072;28;19928;-51
2021/12/27 12:26:21;;;;;;;;;;;20.00;38.90;;;;;;5085584;28;19924;-50
2021/12/27 12:28:47;;;;;;;;;;;20.00;38.90;;;;;;5072744;28;19963;-52
2021/12/27 12:31:16;;;;;;;;;;;20.00;38.90;;;;;;5073082;28;19928;-48
2021/12/27 12:33:43;;;;;;;;;;;20.00;39.10;;;;;;5073429;28;19924;-54
2021/12/27 12:36:11;;;;;;;;;;;20.00;39.00;;;;;;5071749;28;19935;-49
2021/12/27 12:38:39;;;;;;;;;;;20.00;39.10;;;;;;5074477;28;19925;-48
2021/12/27 12:41:06;;;;;;;;;;;20.00;39.10;;;;;;5072931;28;19931;-51
2021/12/27 12:43:34;;;;;;;;;;;20.00;39.10;;;;;;5074035;28;20500;-48
2021/12/27 12:46:10;;;;;;;;;;;20.00;39.10;;;;;;5074607;28;20361;-51
2021/12/27 12:48:38;;;;;;;;;;;20.00;39.20;;;;;;5073535;28;19928;-48
2021/12/27 12:51:05;;;;;;;;;;;20.00;39.20;;;;;;5073194;28;20039;-49
2021/12/27 12:53:32;;;;;;;;;;;20.00;39.20;;;;;;5073022;28;19944;-49
2021/12/27 12:56:02;;;;;;;;;;;20.00;39.20;;;;;;5072682;28;19924;-48
2021/12/27 12:58:33;;;;;;;;;;;20.00;39.20;;;;;;5074262;28;19974;-49
2021/12/27 13:01:02;;;;;;;;;;;20.00;39.20;;;;;;5072781;28;19973;-51
2021/12/27 13:03:29;;;;;;;;;;;20.00;39.20;;;;;;5072397;28;19924;-48
2021/12/27 13:06:00;;;;;;;;;;;20.00;39.20;;;;;;5072421;28;19931;-52
2021/12/27 13:08:27;;;;;;;;;;;20.00;39.10;;;;;;5072133;28;19924;-50
2021/12/27 13:10:55;;;;;;;;;;;20.00;39.20;;;;;;5072090;28;20027;-48
2021/12/27 13:13:22;;;;;;;;;;;20.00;39.10;;;;;;5071651;28;20016;-51
2021/12/27 13:15:49;;;;;;;;;;;20.00;39.20;;;;;;5071634;28;19924;-48
2021/12/27 13:18:17;;;;;;;;;;;20.00;39.10;;;;;;5072436;28;19959;-48
2021/12/27 13:20:44;;;;;;;;;;;20.00;39.20;;;;;;5072247;28;19924;-49
2021/12/27 13:23:12;;;;;;;;;;;20.00;39.10;;;;;;5072101;28;19931;-52
2021/12/27 13:25:39;;;;;;;;;;;20.00;39.20;;;;;;5071716;28;19931;-54
2021/12/27 13:28:13;;;;;;;;;;;20.00;39.10;;;;;;5071650;28;19935;-50
2021/12/27 13:30:44;;;;;;;;;;;20.00;39.20;;;;;;5072550;28;20300;-52
2021/12/27 13:33:11;;;;;;;;;;;20.00;39.10;;;;;;5055285;28;19954;-49
2021/12/27 13:35:40;;;;;;;;;;;20.00;39.10;;;;;;5071868;28;20452;-54
2021/12/27 13:38:15;;;;;;;;;;;20.00;39.10;;;;;;5072021;28;19931;-48
2021/12/27 13:40:43;;;;;;;;;;;19.90;39.00;;;;;;5071992;28;19993;-48
2021/12/27 13:43:10;;;;;;;;;;;20.00;39.10;;;;;;5072080;28;20018;-50
2021/12/27 13:45:39;;;;;;;;;;;19.90;39.00;;;;;;5072095;28;19924;-49
2021/12/27 13:48:06;;;;;;;;;;;20.00;39.10;;;;;;5071942;28;19928;-48
2021/12/27 13:50:33;;;;;;;;;;;19.90;39.00;;;;;;5071738;28;19929;-48
2021/12/27 13:53:00;;;;;;;;;;;19.90;39.00;;;;;;5072099;28;19924;-51
2021/12/27 13:55:28;;;;;;;;;;;20.00;39.10;;;;;;5073118;28;19929;-49
2021/12/27 13:57:55;;;;;;;;;;;19.90;39.00;;;;;;5071897;28;19978;-47
2021/12/27 14:00:26;;;;;;;;;;;20.00;39.10;;;;;;5071867;28;20362;-48
2021/12/27 14:02:53;;;;;;;;;;;19.90;39.00;;;;;;5071759;28;19925;-51
2021/12/27 14:05:24;;;;;;;;;;;19.90;39.00;;;;;;5072984;28;19971;-48
2021/12/27 14:07:53;;;;;;;;;;;19.90;39.00;;;;;;5070308;28;19928;-50
2021/12/27 14:10:20;;;;;;;;;;;19.90;39.00;;;;;;5070359;28;20452;-53
2021/12/27 14:12:58;;;;;;;;;;;19.90;39.00;;;;;;5070001;28;19925;-49
2021/12/27 14:15:27;;;;;;;;;;;19.90;38.90;;;;;;5072531;28;19932;-49
2021/12/27 14:17:54;;;;;;;;;;;19.90;39.00;;;;;;5071756;28;19973;-52
2021/12/27 14:20:20;;;;;;;;;;;19.90;39.00;;;;;;5071878;28;19932;-52
2021/12/27 14:22:49;;;;;;;;;;;19.90;39.00;;;;;;5072476;28;20011;-51